Time;durP1;ratioP1;P1;durP2;ratioP2;P2;SDS_P1;SDS_P2;PMS_P1;PMS_P2;Temp;Humidity;BMP_temperature;BMP_pressure;BME280_temperature;BME280_humidity;BME280_pressure;Samples;Min_cycle;Max_cycle;Signal;HPM_P1;HPM_P2
2021/09/05 00:01:48;;;;;;;11.85;4.72;;;14.20;88.10;;;;;;6311370;22;20034;-76
2021/09/05 00:04:24;;;;;;;9.95;4.45;;;14.20;88.20;;;;;;6289786;22;20030;-76
2021/09/05 00:06:51;;;;;;;9.48;4.15;;;14.20;88.30;;;;;;6317282;22;20023;-76
2021/09/05 00:09:18;;;;;;;10.52;4.57;;;14.10;88.30;;;;;;6318352;22;20031;-75
2021/09/05 00:11:50;;;;;;;9.02;4.38;;;14.10;88.30;;;;;;6290009;22;20023;-75
2021/09/05 00:14:18;;;;;;;12.50;4.60;;;14.20;88.40;;;;;;6317297;22;20052;-76
2021/09/05 00:16:46;;;;;;;12.52;5.07;;;14.10;88.40;;;;;;6316912;22;20042;-76
2021/09/05 00:19:13;;;;;;;11.70;4.70;;;14.20;88.60;;;;;;6317006;22;20026;-76
2021/09/05 00:21:40;;;;;;;10.50;5.30;;;14.20;88.40;;;;;;6316616;22;20076;-76
2021/09/05 00:24:08;;;;;;;11.32;5.15;;;14.20;88.40;;;;;;6317009;22;20068;-76
2021/09/05 00:26:35;;;;;;;12.13;5.07;;;14.20;88.40;;;;;;6316008;22;20127;-76
2021/09/05 00:29:02;;;;;;;11.88;5.70;;;14.10;88.30;;;;;;6316272;22;20047;-76
2021/09/05 00:31:31;;;;;;;13.20;5.25;;;14.10;88.40;;;;;;6288416;22;20048;-76
2021/09/05 00:34:01;;;;;;;10.82;5.80;;;14.10;88.30;;;;;;6289377;22;20019;-76
2021/09/05 00:36:30;;;;;;;10.48;6.03;;;14.20;88.20;;;;;;6288741;22;20035;-76
2021/09/05 00:38:58;;;;;;;14.52;5.70;;;14.10;88.10;;;;;;6287828;22;20080;-76
2021/09/05 00:41:25;;;;;;;15.07;6.30;;;14.10;88.10;;;;;;6313995;22;20027;-76
2021/09/05 00:43:55;;;;;;;18.42;6.40;;;14.10;88.30;;;;;;6313842;22;20038;-76
2021/09/05 00:46:23;;;;;;;11.10;6.18;;;14.10;88.40;;;;;;6314022;22;20015;-76
2021/09/05 00:48:51;;;;;;;13.55;6.28;;;14.00;88.50;;;;;;6314577;22;20054;-76
2021/09/05 00:51:19;;;;;;;8.75;3.90;;;13.90;88.80;;;;;;6287305;22;20031;-77
2021/09/05 00:53:46;;;;;;;9.57;4.53;;;13.80;88.30;;;;;;6286762;22;20027;-75
2021/09/05 00:56:14;;;;;;;10.50;4.72;;;13.70;88.50;;;;;;6287506;22;20064;-76
2021/09/05 00:58:42;;;;;;;11.38;6.03;;;13.70;88.50;;;;;;6286260;22;20015;-75
2021/09/05 01:01:13;;;;;;;10.20;5.22;;;13.70;88.50;;;;;;6308916;22;20022;-75
2021/09/05 01:03:42;;;;;;;10.90;5.55;;;13.60;88.90;;;;;;6314129;22;20042;-76
2021/09/05 01:06:10;;;;;;;12.73;5.40;;;13.70;89.10;;;;;;6287016;22;20027;-76
2021/09/05 01:08:38;;;;;;;11.75;5.38;;;13.60;89.00;;;;;;6313636;22;20212;-76
2021/09/05 01:11:10;;;;;;;11.90;5.50;;;13.60;89.20;;;;;;6315284;22;20015;-76
2021/09/05 01:13:38;;;;;;;14.68;5.88;;;13.70;89.30;;;;;;6287087;22;20313;-75
2021/09/05 01:16:07;;;;;;;14.15;5.60;;;13.70;89.30;;;;;;6287829;22;20017;-76
2021/09/05 01:18:45;;;;;;;12.32;6.10;;;13.70;89.20;;;;;;6288661;22;20034;-76
2021/09/05 01:21:56;;;;;;;11.05;6.05;;;13.70;89.30;;;;;;4090133;22;10021467;-76
2021/09/05 01:24:46;;;;;;;14.30;6.03;;;13.70;89.10;;;;;;4121273;22;10001839;-75
2021/09/05 01:27:33;;;;;;;12.32;5.80;;;13.80;89.00;;;;;;6315425;22;20088;-75
2021/09/05 01:30:20;;;;;;;11.80;5.63;;;13.90;88.90;;;;;;6313307;22;20077;-76
2021/09/05 01:33:10;;;;;;;20.90;6.75;;;13.80;88.90;;;;;;6315200;22;20075;-75
2021/09/05 01:36:00;;;;;;;15.85;6.93;;;13.70;89.10;;;;;;6257739;22;20098;-75
2021/09/05 01:38:48;;;;;;;11.13;5.53;;;13.70;89.10;;;;;;6316130;22;20041;-76
2021/09/05 01:41:38;;;;;;;9.70;4.78;;;13.60;88.60;;;;;;6272245;22;20257;-77
2021/09/05 01:44:26;;;;;;;11.85;4.40;;;13.50;87.90;;;;;;6317631;22;20060;-75
2021/09/05 01:47:12;;;;;;;13.13;4.30;;;13.40;88.10;;;;;;6319264;22;20034;-77
2021/09/05 01:49:58;;;;;;;12.10;5.18;;;13.30;88.50;;;;;;6318800;22;20042;-76
2021/09/05 01:52:46;;;;;;;12.85;4.88;;;13.40;89.30;;;;;;6299087;22;20070;-75
2021/09/05 01:55:35;;;;;;;11.10;4.93;;;13.30;88.00;;;;;;6242010;22;20029;-75
2021/09/05 01:58:20;;;;;;;9.38;4.65;;;13.20;88.30;;;;;;6318918;22;20077;-76
2021/09/05 02:00:58;;;;;;;10.77;5.63;;;13.20;88.70;;;;;;6317409;22;20027;-75
2021/09/05 02:03:47;;;;;;;14.07;5.93;;;13.30;89.00;;;;;;6291764;22;20050;-76
2021/09/05 02:06:39;;;;;;;12.95;5.50;;;13.30;89.30;;;;;;6318416;22;20038;-77
2021/09/05 02:09:21;;;;;;;16.42;5.72;;;13.40;89.50;;;;;;6291606;22;20031;-76
2021/09/05 02:12:07;;;;;;;12.95;5.35;;;13.40;89.20;;;;;;6319264;22;20076;-76
2021/09/05 02:14:49;;;;;;;12.57;5.47;;;13.40;89.10;;;;;;6291187;22;20389;-76
2021/09/05 02:17:43;;;;;;;15.38;6.28;;;13.40;89.30;;;;;;6292512;22;20058;-76
2021/09/05 02:20:26;;;;;;;12.23;6.43;;;13.30;89.50;;;;;;6321829;22;20023;-75
2021/09/05 02:23:25;;;;;;;12.43;6.20;;;13.30;89.70;;;;;;6290479;22;20023;-76
2021/09/05 02:26:12;;;;;;;14.35;6.60;;;13.20;89.80;;;;;;6290356;22;20092;-76
2021/09/05 02:29:17;;;;;;;12.82;6.20;;;13.20;89.80;;;;;;6162460;23;20048;-75
2021/09/05 02:32:10;;;;;;;14.70;6.05;;;13.30;89.80;;;;;;6157394;23;20369;-76
2021/09/05 02:35:09;;;;;;;11.52;6.18;;;13.20;89.80;;;;;;6268524;22;20318;-76
2021/09/05 02:37:55;;;;;;;12.65;6.68;;;13.30;89.80;;;;;;6316466;22;20400;-76
2021/09/05 02:40:34;;;;;;;13.75;6.60;;;13.30;89.80;;;;;;6289371;22;20019;-76
2021/09/05 02:43:27;;;;;;;15.63;7.13;;;13.30;89.70;;;;;;6284006;22;20372;-76
2021/09/05 02:46:17;;;;;;;13.63;6.72;;;13.30;89.80;;;;;;6229020;22;20083;-76
2021/09/05 02:49:04;;;;;;;15.57;6.80;;;13.30;90.00;;;;;;6224454;22;20082;-76
2021/09/05 02:51:52;;;;;;;15.25;7.20;;;13.20;90.00;;;;;;6284631;22;20034;-76
2021/09/05 02:54:41;;;;;;;13.27;6.20;;;13.30;90.00;;;;;;6284359;22;20073;-76
2021/09/05 02:57:26;;;;;;;14.38;6.65;;;13.30;89.90;;;;;;6283172;22;20027;-76
2021/09/05 03:00:27;;;;;;;12.82;6.63;;;13.20;89.80;;;;;;6278924;22;20076;-76
2021/09/05 03:03:14;;;;;;;12.98;6.00;;;13.20;89.70;;;;;;6285594;22;20081;-76
2021/09/05 03:06:01;;;;;;;12.15;6.28;;;13.20;89.60;;;;;;6286610;22;20069;-75
2021/09/05 03:08:54;;;;;;;15.48;6.07;;;13.10;89.80;;;;;;6285987;22;20104;-74
2021/09/05 03:11:42;;;;;;;14.38;7.03;;;13.00;90.00;;;;;;6284561;22;20058;-77
2021/09/05 03:14:44;;;;;;;13.38;5.95;;;13.00;90.00;;;;;;6203784;22;20023;-75
2021/09/05 03:17:32;;;;;;;13.77;6.38;;;12.90;89.90;;;;;;6269461;22;20066;-76
2021/09/05 03:20:25;;;;;;;15.52;6.00;;;13.00;89.80;;;;;;6279237;22;20032;-76
2021/09/05 03:23:21;;;;;;;11.35;5.90;;;12.90;89.80;;;;;;6285349;22;20031;-75
2021/09/05 03:26:15;;;;;;;11.52;6.28;;;12.90;90.00;;;;;;6285791;22;20359;-75
2021/09/05 03:29:02;;;;;;;15.40;6.55;;;12.90;90.20;;;;;;6285921;22;20211;-75
2021/09/05 03:31:50;;;;;;;12.02;6.40;;;12.90;90.30;;;;;;6285576;22;20250;-76
2021/09/05 03:34:43;;;;;;;13.38;6.28;;;12.80;90.30;;;;;;6250315;22;20035;-75
2021/09/05 03:37:36;;;;;;;15.85;7.30;;;12.70;90.40;;;;;;6285402;22;20024;-76
2021/09/05 03:40:29;;;;;;;18.10;6.78;;;12.70;90.50;;;;;;6279003;22;20073;-75
2021/09/05 03:43:18;;;;;;;12.45;6.32;;;12.70;90.50;;;;;;6256990;22;20253;-76
2021/09/05 03:46:20;;;;;;;14.25;6.38;;;12.60;90.50;;;;;;6160884;23;20061;-76
2021/09/05 03:49:13;;;;;;;14.38;6.78;;;12.60;90.80;;;;;;6311982;22;20202;-75
2021/09/05 03:51:43;;;;;;;15.30;6.95;;;12.60;90.80;;;;;;6288998;22;20322;-75
2021/09/05 03:54:15;;;;;;;13.90;5.78;;;12.70;90.70;;;;;;6289800;22;20015;-75
2021/09/05 03:56:42;;;;;;;17.73;7.28;;;12.70;90.80;;;;;;6288064;22;20019;-77
2021/09/05 03:59:12;;;;;;;19.13;8.55;;;12.70;90.80;;;;;;6287486;22;20029;-75
2021/09/05 04:01:41;;;;;;;14.10;6.95;;;12.80;91.00;;;;;;6282287;22;20039;-76
2021/09/05 04:04:21;;;;;;;12.55;6.25;;;12.80;91.10;;;;;;6285063;22;20023;-75
2021/09/05 04:07:00;;;;;;;13.30;6.22;;;12.70;90.40;;;;;;6313562;22;20100;-76
2021/09/05 04:12:13;;;;;;;15.52;5.85;;;12.60;90.00;;;;;;6314564;22;20296;-76
2021/09/05 04:14:42;;;;;;;11.48;5.00;;;12.50;90.10;;;;;;6314347;22;20022;-76
2021/09/05 04:17:09;;;;;;;15.18;5.95;;;12.50;90.00;;;;;;6313662;22;20060;-76
2021/09/05 04:19:37;;;;;;;14.95;5.80;;;12.50;90.30;;;;;;6314475;22;20035;-76
2021/09/05 04:22:05;;;;;;;13.02;6.70;;;12.50;90.20;;;;;;6315200;22;20091;-76
2021/09/05 04:24:35;;;;;;;13.25;6.22;;;12.50;90.20;;;;;;6314536;22;20027;-75
2021/09/05 04:27:02;;;;;;;14.95;5.78;;;12.60;90.20;;;;;;6314301;22;20260;-75
2021/09/05 04:29:31;;;;;;;12.70;6.13;;;12.50;90.30;;;;;;6286913;22;20019;-74
2021/09/05 04:32:00;;;;;;;18.13;6.38;;;12.60;90.30;;;;;;6314650;22;20662;-76
2021/09/05 04:34:32;;;;;;;16.30;6.90;;;12.60;90.30;;;;;;6314533;22;20395;-74
2021/09/05 04:36:59;;;;;;;13.95;6.88;;;12.60;90.20;;;;;;6315975;22;20023;-76
2021/09/05 04:39:26;;;;;;;18.40;6.50;;;12.70;90.40;;;;;;6315628;22;20039;-75
2021/09/05 04:41:53;;;;;;;13.73;6.40;;;12.70;90.20;;;;;;6316690;22;20219;-75
2021/09/05 04:44:20;;;;;;;15.38;6.75;;;12.70;90.40;;;;;;6315478;22;20026;-75
2021/09/05 04:46:47;;;;;;;18.05;8.82;;;12.80;90.60;;;;;;6316813;22;20039;-75
2021/09/05 04:49:16;;;;;;;26.48;9.88;;;13.00;90.90;;;;;;6317250;22;20054;-77
2021/09/05 04:51:43;;;;;;;21.35;8.80;;;13.20;90.70;;;;;;6315999;22;20015;-76
2021/09/05 04:54:10;;;;;;;21.27;9.13;;;13.30;90.40;;;;;;6317442;22;20015;-76
2021/09/05 04:56:38;;;;;;;24.35;10.15;;;13.50;90.10;;;;;;6288965;22;20231;-76
2021/09/05 04:59:05;;;;;;;19.10;8.80;;;13.50;89.90;;;;;;6317534;22;20035;-76
2021/09/05 05:01:39;;;;;;;19.02;9.30;;;13.60;89.70;;;;;;6310108;22;20050;-76
2021/09/05 05:04:06;;;;;;;19.45;8.77;;;13.70;89.60;;;;;;6317012;22;20071;-76
2021/09/05 05:06:35;;;;;;;19.60;8.98;;;13.70;89.70;;;;;;6314053;22;20046;-75
2021/09/05 05:09:02;;;;;;;20.65;8.40;;;13.80;89.40;;;;;;6316892;22;20029;-75
2021/09/05 05:11:29;;;;;;;19.80;8.90;;;13.90;89.40;;;;;;6316095;22;20031;-75
2021/09/05 05:13:56;;;;;;;17.67;8.98;;;14.00;89.20;;;;;;6317426;22;20023;-75
2021/09/05 05:16:24;;;;;;;13.73;6.47;;;13.90;89.00;;;;;;6316020;22;20263;-76
2021/09/05 05:18:51;;;;;;;15.40;7.55;;;13.70;87.20;;;;;;6316333;22;20030;-76
2021/09/05 05:21:18;;;;;;;14.38;5.57;;;13.80;86.90;;;;;;6289279;22;20129;-75
2021/09/05 05:23:47;;;;;;;12.02;5.35;;;13.70;85.70;;;;;;6316091;22;20034;-75
2021/09/05 05:26:14;;;;;;;9.35;5.13;;;13.60;85.50;;;;;;6316016;22;20015;-75
2021/09/05 05:28:41;;;;;;;10.93;5.55;;;13.60;85.50;;;;;;6315061;22;20031;-76
2021/09/05 05:31:08;;;;;;;10.38;5.00;;;13.50;85.60;;;;;;6288089;22;20023;-75
2021/09/05 05:33:35;;;;;;;11.32;5.15;;;13.70;86.70;;;;;;6315866;22;20034;-75
2021/09/05 05:36:02;;;;;;;10.90;5.10;;;13.70;85.60;;;;;;6315304;22;20015;-76
2021/09/05 05:38:30;;;;;;;12.05;5.35;;;13.70;85.40;;;;;;6314775;22;20027;-76
2021/09/05 05:40:59;;;;;;;16.05;6.43;;;13.90;85.30;;;;;;6313478;22;20039;-76
2021/09/05 05:43:26;;;;;;;23.20;9.23;;;14.20;86.10;;;;;;6281507;22;20263;-76
2021/09/05 05:45:53;;;;;;;24.13;9.85;;;14.50;87.50;;;;;;6281850;22;20090;-76
2021/09/05 05:48:20;;;;;;;25.77;10.32;;;14.70;86.90;;;;;;6281216;22;20028;-76
2021/09/05 05:50:48;;;;;;;21.48;8.70;;;14.90;86.60;;;;;;6283328;22;20028;-76
2021/09/05 05:53:15;;;;;;;22.27;9.30;;;15.00;86.20;;;;;;6283463;22;20023;-76
2021/09/05 05:55:43;;;;;;;20.63;9.25;;;15.10;85.80;;;;;;6282834;22;20040;-76
2021/09/05 05:58:12;;;;;;;23.75;10.63;;;15.10;85.80;;;;;;6282910;22;20099;-77
2021/09/05 06:00:39;;;;;;;23.40;10.13;;;15.10;85.70;;;;;;6276584;22;20031;-77
2021/09/05 06:03:07;;;;;;;21.45;8.90;;;15.10;85.50;;;;;;6283026;22;20323;-77
2021/09/05 06:05:34;;;;;;;22.63;10.23;;;15.20;85.40;;;;;;6283532;22;20023;-76
2021/09/05 06:08:03;;;;;;;23.55;9.38;;;15.30;85.00;;;;;;6307303;22;20023;-76
2021/09/05 06:10:31;;;;;;;24.15;10.07;;;15.30;85.00;;;;;;6282198;22;20074;-75
2021/09/05 06:12:59;;;;;;;20.13;9.32;;;15.30;84.70;;;;;;6307190;22;20174;-76
2021/09/05 06:15:27;;;;;;;20.88;8.95;;;15.30;84.40;;;;;;6282521;22;20026;-76
2021/09/05 06:17:54;;;;;;;24.77;9.80;;;15.40;84.60;;;;;;6286500;22;20023;-76
2021/09/05 06:20:21;;;;;;;21.15;9.48;;;15.40;84.50;;;;;;6284956;22;20040;-76
2021/09/05 06:22:49;;;;;;;21.25;9.45;;;15.40;84.50;;;;;;6283315;22;20031;-75
2021/09/05 06:25:16;;;;;;;20.13;9.15;;;15.40;84.40;;;;;;6285287;22;20023;-76
2021/09/05 06:27:44;;;;;;;19.13;10.23;;;15.30;84.50;;;;;;6284092;22;20023;-76
2021/09/05 06:30:12;;;;;;;21.10;8.85;;;15.40;84.40;;;;;;6286510;22;20035;-76
2021/09/05 06:32:41;;;;;;;18.13;9.95;;;15.40;84.40;;;;;;6286318;22;20042;-75
2021/09/05 06:35:09;;;;;;;21.13;9.63;;;15.30;84.40;;;;;;6284916;22;20081;-75
2021/09/05 06:37:36;;;;;;;18.77;9.10;;;15.30;84.30;;;;;;6284885;22;20369;-75
2021/09/05 06:40:04;;;;;;;19.50;8.93;;;15.20;84.50;;;;;;6286286;22;20126;-75
2021/09/05 06:42:31;;;;;;;21.70;9.57;;;15.30;84.50;;;;;;6285969;22;20035;-75
2021/09/05 06:44:59;;;;;;;20.98;9.38;;;15.30;84.40;;;;;;6311616;22;20034;-75
2021/09/05 06:47:26;;;;;;;20.52;9.77;;;15.40;84.50;;;;;;6316221;22;20047;-75
2021/09/05 06:49:55;;;;;;;20.38;9.45;;;15.50;84.30;;;;;;6290672;22;20067;-77
2021/09/05 06:52:22;;;;;;;19.15;8.90;;;15.60;83.80;;;;;;6316393;22;20026;-76
2021/09/05 06:54:49;;;;;;;21.35;9.45;;;15.60;83.60;;;;;;6317928;22;20252;-76
2021/09/05 06:57:17;;;;;;;22.05;8.93;;;15.60;83.50;;;;;;6318809;22;20031;-76
2021/09/05 06:59:44;;;;;;;22.42;9.45;;;15.70;83.20;;;;;;6316780;22;20061;-76
2021/09/05 07:02:11;;;;;;;19.25;9.18;;;15.70;83.30;;;;;;6313604;22;20255;-76
2021/09/05 07:04:39;;;;;;;22.92;9.45;;;15.70;83.30;;;;;;6316994;22;20019;-76
2021/09/05 07:07:07;;;;;;;18.33;8.82;;;15.70;83.60;;;;;;6290449;22;20015;-76
2021/09/05 07:09:35;;;;;;;19.50;8.02;;;15.70;83.40;;;;;;6290087;22;20327;-75
2021/09/05 07:12:02;;;;;;;17.45;8.60;;;15.70;83.30;;;;;;6317811;22;20074;-76
2021/09/05 07:14:29;;;;;;;20.88;10.13;;;15.70;83.30;;;;;;6317065;22;20027;-75
2021/09/05 07:16:56;;;;;;;19.13;9.40;;;15.70;83.20;;;;;;6317238;22;20030;-75
2021/09/05 07:19:24;;;;;;;15.75;7.68;;;15.70;83.40;;;;;;6315617;22;20031;-76
2021/09/05 07:21:51;;;;;;;15.25;8.05;;;15.70;83.50;;;;;;6315715;22;20035;-76
2021/09/05 07:24:20;;;;;;;19.33;9.43;;;15.90;83.20;;;;;;6315988;22;20019;-76
2021/09/05 07:26:47;;;;;;;15.57;7.22;;;15.90;82.80;;;;;;6315217;22;20023;-76
2021/09/05 07:29:17;;;;;;;18.50;9.23;;;15.90;82.90;;;;;;6289020;22;20311;-75
2021/09/05 07:31:44;;;;;;;19.60;8.95;;;15.80;83.00;;;;;;6289931;22;20030;-76
2021/09/05 07:34:11;;;;;;;18.38;8.35;;;15.90;82.90;;;;;;6288537;22;20034;-76
2021/09/05 07:36:38;;;;;;;14.15;7.18;;;16.10;82.70;;;;;;6316048;22;20361;-76
2021/09/05 07:39:06;;;;;;;17.38;8.15;;;16.20;82.20;;;;;;6311850;22;20074;-76
2021/09/05 07:41:34;;;;;;;16.67;7.47;;;16.30;82.00;;;;;;6313029;22;20096;-76
2021/09/05 07:44:03;;;;;;;17.15;7.50;;;16.50;81.70;;;;;;6284200;22;20071;-76
2021/09/05 07:46:30;;;;;;;16.92;8.13;;;16.50;81.40;;;;;;6286011;22;20019;-76
2021/09/05 07:48:57;;;;;;;16.35;7.45;;;16.50;81.80;;;;;;6285154;22;20020;-76
2021/09/05 07:51:24;;;;;;;14.10;6.90;;;16.60;81.30;;;;;;6283138;22;20149;-75
2021/09/05 07:53:52;;;;;;;12.48;6.72;;;16.80;80.70;;;;;;6283536;22;20015;-76
2021/09/05 07:56:20;;;;;;;13.55;6.25;;;16.80;80.40;;;;;;6285417;22;20315;-75
2021/09/05 07:58:49;;;;;;;12.35;6.80;;;16.90;80.60;;;;;;6285313;22;20353;-76
2021/09/05 08:01:17;;;;;;;16.98;8.07;;;17.10;80.00;;;;;;6284013;22;20064;-76
2021/09/05 08:03:44;;;;;;;15.80;7.82;;;17.20;79.60;;;;;;6286345;22;20042;-76
2021/09/05 08:06:11;;;;;;;14.70;7.18;;;17.30;79.50;;;;;;6285002;22;20092;-76
2021/09/05 08:08:38;;;;;;;17.30;8.23;;;17.40;79.40;;;;;;6285895;22;20066;-76
2021/09/05 08:11:06;;;;;;;15.50;7.72;;;17.50;79.40;;;;;;6287182;22;20023;-76
2021/09/05 08:13:35;;;;;;;15.38;6.90;;;17.60;78.80;;;;;;6284789;22;20054;-76
2021/09/05 08:16:04;;;;;;;14.48;6.95;;;17.70;78.50;;;;;;6286339;22;20219;-75
2021/09/05 08:18:35;;;;;;;15.90;7.30;;;17.80;78.50;;;;;;6284620;22;20034;-75
2021/09/05 08:21:04;;;;;;;14.23;7.15;;;18.10;77.90;;;;;;6288151;22;20058;-76
2021/09/05 08:23:32;;;;;;;12.02;6.38;;;18.30;77.30;;;;;;6284104;22;20027;-76
2021/09/05 08:26:00;;;;;;;13.55;6.25;;;18.30;76.90;;;;;;6286101;22;20019;-75
2021/09/05 08:28:29;;;;;;;13.75;6.47;;;18.50;76.90;;;;;;6284797;22;20027;-75
2021/09/05 08:30:56;;;;;;;11.40;6.15;;;18.70;76.20;;;;;;6283177;22;20038;-77
2021/09/05 08:33:25;;;;;;;14.88;5.90;;;18.90;75.60;;;;;;6286120;22;20035;-76
2021/09/05 08:35:52;;;;;;;11.55;5.85;;;19.00;75.30;;;;;;6286357;22;20342;-75
2021/09/05 08:38:20;;;;;;;10.82;5.47;;;19.20;74.80;;;;;;6283616;22;20019;-75
2021/09/05 08:40:48;;;;;;;15.05;6.85;;;19.30;74.20;;;;;;6286529;22;20023;-75
2021/09/05 08:43:16;;;;;;;10.65;5.80;;;19.50;73.60;;;;;;6286712;22;20034;-76
2021/09/05 08:45:45;;;;;;;10.55;5.82;;;19.40;73.40;;;;;;6287925;22;20057;-76
2021/09/05 08:48:14;;;;;;;10.95;5.65;;;19.60;73.20;;;;;;6289452;22;20061;-75
2021/09/05 08:50:44;;;;;;;12.83;5.30;;;19.60;73.00;;;;;;6287952;22;20070;-75
2021/09/05 08:53:11;;;;;;;14.52;5.85;;;19.70;73.10;;;;;;6314406;22;20070;-76
2021/09/05 08:55:38;;;;;;;13.20;5.07;;;19.80;72.80;;;;;;6288989;22;20069;-75
2021/09/05 08:58:06;;;;;;;10.82;5.72;;;20.00;72.30;;;;;;6315539;22;20234;-75
2021/09/05 09:00:35;;;;;;;9.00;4.97;;;20.00;72.10;;;;;;6309252;22;20311;-75
2021/09/05 09:03:02;;;;;;;11.43;5.28;;;20.10;71.90;;;;;;6287340;22;20223;-76
2021/09/05 09:05:37;;;;;;;11.40;5.60;;;20.30;71.20;;;;;;6313091;22;20049;-76
2021/09/05 09:08:07;;;;;;;10.48;5.68;;;20.40;70.60;;;;;;6287057;22;20202;-76
2021/09/05 09:10:46;;;;;;;10.80;5.45;;;20.60;70.40;;;;;;6314513;22;20019;-76
2021/09/05 09:13:23;;;;;;;9.57;4.93;;;20.70;70.10;;;;;;6315427;22;20022;-76
2021/09/05 09:15:50;;;;;;;11.00;5.68;;;21.00;69.60;;;;;;6312518;22;20038;-76
2021/09/05 09:18:25;;;;;;;10.32;5.05;;;21.10;69.20;;;;;;6315176;22;20019;-76
2021/09/05 09:20:54;;;;;;;9.48;5.55;;;21.20;68.80;;;;;;6313617;22;20041;-77
2021/09/05 09:23:24;;;;;;;13.82;5.93;;;21.50;68.40;;;;;;6286218;22;20069;-76
2021/09/05 09:26:00;;;;;;;10.07;5.03;;;21.60;67.70;;;;;;6288378;22;20038;-76
2021/09/05 09:28:35;;;;;;;10.90;5.43;;;21.70;67.10;;;;;;6313914;22;20019;-74
2021/09/05 09:31:05;;;;;;;9.70;5.13;;;22.00;66.90;;;;;;6287426;22;20029;-75
2021/09/05 09:33:33;;;;;;;9.35;4.82;;;22.20;66.40;;;;;;6282139;22;20075;-76
2021/09/05 09:36:04;;;;;;;9.60;5.28;;;22.50;65.10;;;;;;6278257;22;20022;-78
2021/09/05 09:38:34;;;;;;;10.30;5.32;;;22.90;64.20;;;;;;6315298;22;20027;-75
2021/09/05 09:41:10;;;;;;;10.25;5.15;;;23.00;63.20;;;;;;6316398;22;20038;-75
2021/09/05 09:43:56;;;;;;;9.38;5.20;;;23.50;62.30;;;;;;6319352;22;20039;-75
2021/09/05 09:46:25;;;;;;;10.48;5.30;;;24.00;60.20;;;;;;6316570;22;20318;-76
2021/09/05 09:48:54;;;;;;;10.55;5.53;;;24.40;60.00;;;;;;6316174;22;20023;-76
2021/09/05 09:51:21;;;;;;;9.68;5.63;;;24.80;58.30;;;;;;6289746;22;20050;-75
2021/09/05 09:53:50;;;;;;;10.30;5.13;;;25.10;57.30;;;;;;6316413;22;20027;-76
2021/09/05 09:56:18;;;;;;;10.70;5.78;;;25.20;56.70;;;;;;6289627;22;20035;-76
2021/09/05 09:58:46;;;;;;;8.75;4.70;;;25.10;56.60;;;;;;6314350;22;20366;-76
2021/09/05 10:01:18;;;;;;;9.30;5.05;;;25.10;56.50;;;;;;6311547;22;20023;-76
2021/09/05 10:03:48;;;;;;;10.13;5.32;;;25.20;56.50;;;;;;6316388;22;20233;-76
2021/09/05 10:06:16;;;;;;;10.00;5.28;;;25.30;55.80;;;;;;6319401;22;20015;-76
2021/09/05 10:08:44;;;;;;;12.85;5.32;;;25.50;55.40;;;;;;6290613;22;20027;-76
2021/09/05 10:11:15;;;;;;;9.18;5.05;;;26.10;54.30;;;;;;6317988;22;20099;-76
2021/09/05 10:13:45;;;;;;;8.55;5.00;;;27.10;51.90;;;;;;6318131;22;20027;-76
2021/09/05 10:16:12;;;;;;;;;;;28.10;49.40;;;;;;6291329;22;20023;-76
2021/09/05 10:18:42;;;;;;;9.80;5.05;;;29.00;46.50;;;;;;6291987;22;19942;-76
2021/09/05 10:21:11;;;;;;;11.40;5.15;;;29.30;45.80;;;;;;6319585;22;20034;-75
2021/09/05 10:23:38;;;;;;;13.98;6.13;;;30.10;44.10;;;;;;6317848;22;20039;-75
2021/09/05 10:26:07;;;;;;;10.23;5.05;;;30.80;41.80;;;;;;6317914;22;20021;-75
2021/09/05 10:28:38;;;;;;;9.13;5.13;;;31.00;42.10;;;;;;6289930;22;20331;-75
2021/09/05 10:31:06;;;;;;;9.02;4.88;;;31.80;40.40;;;;;;6318196;22;20030;-74
2021/09/05 10:33:35;;;;;;;7.85;4.25;;;32.00;38.40;;;;;;6290376;22;20082;-74
2021/09/05 10:36:09;;;;;;;;;;;32.60;39.30;;;;;;6319251;22;20019;-75
2021/09/05 10:38:38;;;;;;;9.23;4.70;;;32.90;37.60;;;;;;6290220;22;19918;-75
2021/09/05 10:41:09;;;;;;;9.48;4.88;;;33.70;36.30;;;;;;6318193;22;20029;-75
2021/09/05 10:44:10;;;;;;;9.90;5.25;;;33.60;36.40;;;;;;6317024;22;20274;-74
2021/09/05 10:46:41;;;;;;;7.97;4.63;;;34.00;35.80;;;;;;6315926;22;20026;-74
2021/09/05 10:49:09;;;;;;;9.60;4.70;;;34.30;34.20;;;;;;6317057;22;20023;-75
2021/09/05 10:51:46;;;;;;;9.73;4.68;;;34.70;33.40;;;;;;6288596;22;20022;-74
2021/09/05 10:54:22;;;;;;;9.38;4.65;;;34.80;32.10;;;;;;6288905;22;20210;-75
2021/09/05 10:56:49;;;;;;;8.30;4.72;;;34.80;32.60;;;;;;6288056;22;20019;-76
2021/09/05 10:59:19;;;;;;;8.68;4.53;;;34.90;32.40;;;;;;6316212;22;20326;-74
2021/09/05 11:02:02;;;;;;;9.57;5.03;;;35.20;32.00;;;;;;6310288;22;20069;-75
2021/09/05 11:04:42;;;;;;;9.18;5.15;;;35.20;31.50;;;;;;6288130;22;20022;-73
2021/09/05 11:07:28;;;;;;;10.40;5.60;;;35.00;32.30;;;;;;6317076;22;20049;-75
2021/09/05 11:09:55;;;;;;;8.52;5.35;;;35.10;31.60;;;;;;6312201;22;20246;-75
2021/09/05 11:12:44;;;;;;;9.07;5.05;;;35.80;30.80;;;;;;6289150;22;20035;-75
2021/09/05 11:15:12;;;;;;;;;;;35.60;31.40;;;;;;6291418;22;20018;-75
2021/09/05 11:17:41;;;;;;;;;;;35.50;31.30;;;;;;6318415;22;19923;-75
2021/09/05 11:20:11;;;;;;;6.32;3.53;;;35.80;30.10;;;;;;6318606;22;19960;-75
2021/09/05 11:22:41;;;;;;;7.80;4.20;;;36.60;28.80;;;;;;6317797;22;20037;-74
2021/09/05 11:25:25;;;;;;;7.72;3.70;;;36.80;28.40;;;;;;6319400;22;20019;-74
2021/09/05 11:27:58;;;;;;;6.43;3.72;;;36.90;26.90;;;;;;6318630;22;20042;-74
2021/09/05 11:30:28;;;;;;;6.95;3.95;;;37.30;26.70;;;;;;6318069;22;20019;-74
2021/09/05 11:33:06;;;;;;;12.77;4.72;;;37.00;28.20;;;;;;6318460;22;20015;-74
2021/09/05 11:35:35;;;;;;;;;;;37.10;27.80;;;;;;6292253;22;20019;-75
2021/09/05 11:38:02;;;;;;;8.27;4.33;;;37.70;27.30;;;;;;6317762;22;19910;-76
2021/09/05 11:40:31;;;;;;;7.03;3.85;;;38.20;26.30;;;;;;6289511;22;20026;-76
2021/09/05 11:42:59;;;;;;;7.70;4.30;;;38.50;25.50;;;;;;6318811;22;20037;-74
2021/09/05 11:45:28;;;;;;;7.05;3.80;;;38.50;26.10;;;;;;6318070;22;20027;-75
2021/09/05 11:48:04;;;;;;;9.20;4.03;;;38.50;25.00;;;;;;6319196;22;20023;-74
2021/09/05 11:50:34;;;;;;;13.40;6.70;;;38.70;25.10;;;;;;6317929;22;20031;-74
2021/09/05 11:53:04;;;;;;;6.30;3.97;;;38.60;24.50;;;;;;6318549;22;20045;-74
2021/09/05 11:55:36;;;;;;;5.80;3.42;;;39.00;24.50;;;;;;6317481;22;20259;-76
2021/09/05 11:58:06;;;;;;;5.68;3.28;;;39.20;23.80;;;;;;6317879;22;20020;-75
2021/09/05 12:00:36;;;;;;;6.35;3.50;;;39.60;23.50;;;;;;6286496;22;20319;-75
2021/09/05 12:03:07;;;;;;;5.75;3.13;;;39.70;23.80;;;;;;6291503;22;20015;-74
2021/09/05 12:05:36;;;;;;;6.75;3.88;;;40.10;23.30;;;;;;6317252;22;20023;-75
2021/09/05 12:08:04;;;;;;;6.13;3.83;;;40.00;23.80;;;;;;6317795;22;20230;-75
2021/09/05 12:10:33;;;;;;;7.00;3.65;;;40.40;23.70;;;;;;6316257;22;20047;-75
2021/09/05 12:13:05;;;;;;;5.38;3.30;;;40.10;23.20;;;;;;6316850;22;20311;-74
2021/09/05 12:15:38;;;;;;;6.03;3.20;;;41.30;22.10;;;;;;6318750;22;20023;-75
2021/09/05 12:18:18;;;;;;;5.18;3.10;;;40.30;21.80;;;;;;6316565;22;20014;-76
2021/09/05 12:20:48;;;;;;;4.45;2.70;;;40.80;22.00;;;;;;6314843;22;20240;-76
2021/09/05 12:23:23;;;;;;;5.85;3.53;;;41.30;21.80;;;;;;6317561;22;20150;-76
2021/09/05 12:25:56;;;;;;;5.45;3.38;;;41.30;21.20;;;;;;6315344;22;20019;-76
2021/09/05 12:28:27;;;;;;;5.82;3.13;;;41.40;20.80;;;;;;6315281;22;20245;-75
2021/09/05 12:30:57;;;;;;;5.78;3.17;;;41.00;20.70;;;;;;6318985;22;20344;-74
2021/09/05 12:33:37;;;;;;;6.13;2.80;;;40.70;22.30;;;;;;6317612;22;20071;-74
2021/09/05 12:36:18;;;;;;;5.40;2.90;;;41.40;21.00;;;;;;6316737;22;20211;-75
2021/09/05 12:38:54;;;;;;;6.32;3.13;;;41.20;21.00;;;;;;6313954;22;20019;-75
2021/09/05 12:41:25;;;;;;;4.65;2.70;;;42.30;19.70;;;;;;6314542;22;20027;-75
2021/09/05 12:43:56;;;;;;;4.40;2.60;;;42.50;19.50;;;;;;6315429;22;20060;-76
2021/09/05 12:46:36;;;;;;;7.18;2.72;;;42.90;18.60;;;;;;6315787;22;20211;-75
2021/09/05 12:49:13;;;;;;;4.70;2.58;;;42.90;18.10;;;;;;6287957;22;20058;-74
2021/09/05 12:51:48;;;;;;;4.57;2.85;;;42.40;18.90;;;;;;6286123;22;20070;-75
2021/09/05 12:54:16;;;;;;;10.02;3.15;;;43.10;19.00;;;;;;6314969;22;20049;-75
2021/09/05 12:56:43;;;;;;;4.22;2.53;;;43.60;17.90;;;;;;6317207;22;20023;-76
2021/09/05 12:59:13;;;;;;;6.15;3.35;;;43.50;18.90;;;;;;6316784;22;20271;-75
2021/09/05 13:01:40;;;;;;;4.85;3.13;;;43.10;18.90;;;;;;6311641;22;20039;-76
2021/09/05 13:04:11;;;;;;;5.38;3.05;;;42.70;18.70;;;;;;6317049;22;20038;-73
2021/09/05 13:06:39;;;;;;;5.05;2.92;;;43.20;18.40;;;;;;6316162;22;20027;-74
2021/09/05 13:09:08;;;;;;;5.00;2.70;;;42.80;18.30;;;;;;6318153;22;20026;-75
2021/09/05 13:11:36;;;;;;;;;;;42.90;18.00;;;;;;6315231;22;20047;-74
2021/09/05 13:14:04;;;;;;;4.55;2.72;;;42.90;17.70;;;;;;6317494;22;19958;-75